Time;durP1;ratioP1;P1;durP2;ratioP2;P2;SDS_P1;SDS_P2;PMS_P1;PMS_P2;Temp;Humidity;BMP_temperature;BMP_pressure;BME280_temperature;BME280_humidity;BME280_pressure;Samples;Min_cycle;Max_cycle;Signal;HPM_P1;HPM_P2
2022/01/02 00:01:25;;;;;;;63.55;25.85;;;;;;;;;;5034320;28;20025;-69
2022/01/02 00:03:53;;;;;;;66.90;29.33;;;;;;;;;;5035400;28;20029;-69
2022/01/02 00:06:25;;;;;;;76.22;28.90;;;;;;;;;;5039112;28;20018;-69
2022/01/02 00:08:55;;;;;;;67.63;27.63;;;;;;;;;;5039039;28;20021;-69
2022/01/02 00:11:24;;;;;;;64.65;27.00;;;;;;;;;;5037792;28;20109;-69
2022/01/02 00:13:55;;;;;;;59.33;23.45;;;;;;;;;;5038889;28;20028;-69
2022/01/02 00:16:26;;;;;;;64.47;22.60;;;;;;;;;;5037825;28;20113;-69
2022/01/02 00:19:06;;;;;;;54.80;20.42;;;;;;;;;;5038879;28;20021;-69
2022/01/02 00:21:38;;;;;;;58.50;27.13;;;;;;;;;;5038751;28;20022;-69
2022/01/02 00:24:10;;;;;;;59.15;31.48;;;;;;;;;;5038747;28;20052;-69
2022/01/02 00:26:42;;;;;;;73.75;34.90;;;;;;;;;;5037619;28;20029;-69
2022/01/02 00:29:10;;;;;;;31.35;14.38;;;;;;;;;;5038574;28;20068;-69
2022/01/02 00:31:37;;;;;;;35.47;15.23;;;;;;;;;;5038504;28;20026;-70
2022/01/02 00:34:05;;;;;;;33.65;13.60;;;;;;;;;;5038522;28;20029;-69
2022/01/02 00:36:33;;;;;;;64.50;28.27;;;;;;;;;;5038557;28;20021;-69
2022/01/02 00:39:02;;;;;;;51.88;24.02;;;;;;;;;;5038518;28;20018;-69
2022/01/02 00:41:34;;;;;;;43.83;17.30;;;;;;;;;;5038454;28;20096;-69
2022/01/02 00:44:19;;;;;;;41.47;18.40;;;;;;;;;;5038364;28;20036;-69
2022/01/02 00:46:56;;;;;;;66.85;27.85;;;;;;;;;;5038237;28;20028;-69
2022/01/02 00:49:24;;;;;;;36.17;17.20;;;;;;;;;;5038113;28;20045;-69
2022/01/02 00:51:59;;;;;;;58.95;28.00;;;;;;;;;;5038123;28;20030;-69
2022/01/02 00:54:31;;;;;;;28.40;14.40;;;;;;;;;;5038422;28;20183;-69
2022/01/02 00:57:04;;;;;;;37.40;14.50;;;;;;;;;;5038116;28;20080;-69
2022/01/02 00:59:41;;;;;;;35.90;14.25;;;;;;;;;;5037057;28;20419;-69
2022/01/02 01:02:11;;;;;;;49.72;19.75;;;;;;;;;;5037017;28;20422;-69
2022/01/02 01:04:43;;;;;;;46.85;15.93;;;;;;;;;;5037919;28;20026;-69
2022/01/02 01:07:10;;;;;;;43.70;15.23;;;;;;;;;;5036904;28;20029;-69
2022/01/02 01:09:41;;;;;;;28.02;10.15;;;;;;;;;;5037922;28;20441;-69
2022/01/02 01:12:10;;;;;;;26.10;10.45;;;;;;;;;;5037660;28;20029;-69
2022/01/02 01:14:37;;;;;;;29.25;10.85;;;;;;;;;;5036533;28;20026;-69
2022/01/02 01:17:05;;;;;;;30.38;11.20;;;;;;;;;;5037132;28;20067;-70
2022/01/02 01:19:33;;;;;;;30.48;11.70;;;;;;;;;;5037858;28;20025;-69
2022/01/02 01:22:00;;;;;;;26.98;9.93;;;;;;;;;;5036784;28;20021;-69
2022/01/02 01:24:34;;;;;;;22.80;9.48;;;;;;;;;;5037726;28;20049;-70
2022/01/02 01:27:07;;;;;;;21.40;9.25;;;;;;;;;;5038012;28;20080;-69
2022/01/02 01:29:38;;;;;;;33.47;11.05;;;;;;;;;;5037621;28;20053;-69
2022/01/02 01:32:07;;;;;;;27.45;9.60;;;;;;;;;;5037504;28;20385;-69
2022/01/02 01:34:35;;;;;;;34.13;12.40;;;;;;;;;;5036437;28;20452;-69
2022/01/02 01:37:05;;;;;;;50.47;16.02;;;;;;;;;;5037393;28;20114;-69
2022/01/02 01:39:33;;;;;;;50.10;15.98;;;;;;;;;;5037390;28;20049;-70
2022/01/02 01:42:10;;;;;;;49.90;17.20;;;;;;;;;;5037258;28;20097;-68
2022/01/02 01:47:14;;;;;;;54.92;18.20;;;;;;;;;;5037168;28;20330;-68
2022/01/02 01:49:41;;;;;;;60.22;22.48;;;;;;;;;;5037052;28;20045;-68
2022/01/02 01:52:07;;;;;;;61.92;24.58;;;;;;;;;;5035879;28;20136;-68
2022/01/02 01:54:35;;;;;;;61.30;25.83;;;;;;;;;;5037249;28;20021;-69
2022/01/02 01:57:06;;;;;;;60.97;24.60;;;;;;;;;;5035886;28;20403;-68
2022/01/02 01:59:33;;;;;;;42.33;21.33;;;;;;;;;;5037160;28;20022;-69
2022/01/02 02:02:06;;;;;;;42.30;18.70;;;;;;;;;;5039848;28;20025;-69
2022/01/02 02:04:33;;;;;;;44.78;20.27;;;;;;;;;;5037487;28;20021;-69
2022/01/02 02:07:01;;;;;;;52.92;22.67;;;;;;;;;;5037241;28;20029;-68
2022/01/02 02:09:46;;;;;;;55.53;23.65;;;;;;;;;;5037232;28;20418;-69
2022/01/02 02:12:17;;;;;;;61.90;24.48;;;;;;;;;;5037124;28;20026;-69
2022/01/02 02:14:47;;;;;;;62.92;25.38;;;;;;;;;;5036232;28;20021;-69
2022/01/02 02:17:16;;;;;;;66.05;24.88;;;;;;;;;;5037263;28;20034;-69
2022/01/02 02:19:46;;;;;;;61.10;25.73;;;;;;;;;;5037218;28;20041;-69
2022/01/02 02:22:14;;;;;;;64.47;24.85;;;;;;;;;;5042338;28;20079;-69
2022/01/02 02:24:44;;;;;;;60.42;25.35;;;;;;;;;;5056462;28;20014;-69
2022/01/02 02:27:12;;;;;;;59.67;27.23;;;;;;;;;;5057769;28;20010;-69
2022/01/02 02:29:39;;;;;;;54.10;25.65;;;;;;;;;;5056533;28;20031;-69
2022/01/02 02:32:07;;;;;;;44.28;20.70;;;;;;;;;;5057037;28;20043;-69
2022/01/02 02:34:35;;;;;;;48.72;21.08;;;;;;;;;;5047808;28;20028;-69
2022/01/02 02:37:02;;;;;;;44.13;19.00;;;;;;;;;;5037641;28;20026;-69
2022/01/02 02:39:33;;;;;;;42.78;20.42;;;;;;;;;;5037956;28;20025;-69
2022/01/02 02:42:10;;;;;;;48.38;21.30;;;;;;;;;;5036589;28;20048;-69
2022/01/02 02:44:40;;;;;;;46.83;21.10;;;;;;;;;;5036642;28;20365;-69
2022/01/02 02:49:53;;;;;;;48.63;22.17;;;;;;;;;;5037446;28;20055;-69
2022/01/02 02:52:39;;;;;;;41.97;20.52;;;;;;;;;;5036418;28;20040;-69
2022/01/02 02:55:07;;;;;;;54.58;25.05;;;;;;;;;;5037130;28;20025;-66
2022/01/02 02:57:38;;;;;;;54.78;26.55;;;;;;;;;;5036058;28;20029;-69
2022/01/02 03:00:06;;;;;;;67.68;33.05;;;;;;;;;;5035985;28;20014;-69
2022/01/02 03:02:34;;;;;;;74.88;35.58;;;;;;;;;;5036014;28;20033;-69
2022/01/02 03:05:01;;;;;;;73.82;36.42;;;;;;;;;;5035921;28;20112;-69
2022/01/02 03:07:30;;;;;;;80.22;40.20;;;;;;;;;;5036006;28;20029;-69
2022/01/02 03:10:02;;;;;;;78.70;39.78;;;;;;;;;;5035864;28;20052;-69
2022/01/02 03:12:29;;;;;;;79.20;38.65;;;;;;;;;;5035851;28;20074;-69
2022/01/02 03:14:57;;;;;;;75.30;38.30;;;;;;;;;;5035839;28;20075;-69
2022/01/02 03:17:24;;;;;;;88.55;41.22;;;;;;;;;;5034761;28;20442;-69
2022/01/02 03:19:54;;;;;;;90.13;43.05;;;;;;;;;;5034820;28;20163;-69
2022/01/02 03:22:22;;;;;;;69.00;32.90;;;;;;;;;;5035839;28;20449;-69
2022/01/02 03:24:52;;;;;;;62.53;33.42;;;;;;;;;;5035867;28;20036;-70
2022/01/02 03:27:19;;;;;;;99.47;47.97;;;;;;;;;;5035665;28;20021;-69
2022/01/02 03:29:46;;;;;;;106.88;55.03;;;;;;;;;;5035653;28;20079;-69
2022/01/02 03:32:14;;;;;;;135.52;62.30;;;;;;;;;;5035580;28;20037;-69
2022/01/02 03:34:41;;;;;;;157.80;71.15;;;;;;;;;;5034656;28;20026;-69
2022/01/02 03:37:09;;;;;;;134.75;63.17;;;;;;;;;;5034562;28;20022;-69
2022/01/02 03:39:37;;;;;;;121.45;54.65;;;;;;;;;;5038075;28;20314;-69
2022/01/02 03:42:07;;;;;;;110.60;55.22;;;;;;;;;;5039352;28;20025;-69
2022/01/02 03:44:35;;;;;;;100.60;49.08;;;;;;;;;;5039384;28;20033;-69
2022/01/02 03:47:02;;;;;;;103.45;48.25;;;;;;;;;;5039453;28;20029;-69
2022/01/02 03:49:31;;;;;;;109.30;49.65;;;;;;;;;;5039254;28;20063;-70
2022/01/02 03:51:58;;;;;;;84.47;37.80;;;;;;;;;;5039275;28;20365;-70
2022/01/02 03:54:25;;;;;;;71.53;33.80;;;;;;;;;;5039392;28;20095;-69
2022/01/02 03:56:54;;;;;;;82.68;38.78;;;;;;;;;;5038103;28;20098;-69
2022/01/02 03:59:23;;;;;;;79.22;37.55;;;;;;;;;;5039164;28;20026;-70
2022/01/02 04:01:51;;;;;;;77.03;33.05;;;;;;;;;;4997780;28;20042;-69
2022/01/02 04:04:18;;;;;;;63.92;29.33;;;;;;;;;;4997752;28;20042;-69
2022/01/02 04:06:46;;;;;;;61.75;27.63;;;;;;;;;;4997705;28;20038;-69
2022/01/02 04:09:14;;;;;;;52.20;26.38;;;;;;;;;;4997673;28;20030;-69
2022/01/02 04:11:42;;;;;;;70.10;28.63;;;;;;;;;;4997670;28;20039;-69
2022/01/02 04:14:12;;;;;;;61.85;28.65;;;;;;;;;;4997742;28;20026;-69
2022/01/02 04:16:43;;;;;;;59.40;27.05;;;;;;;;;;4997741;28;20423;-69
2022/01/02 04:19:11;;;;;;;59.50;28.02;;;;;;;;;;4997700;28;20143;-69
2022/01/02 04:21:41;;;;;;;61.83;31.35;;;;;;;;;;4981192;28;20447;-69
2022/01/02 04:24:09;;;;;;;70.72;28.42;;;;;;;;;;4997599;28;20050;-69
2022/01/02 04:26:39;;;;;;;53.83;21.88;;;;;;;;;;4997438;28;20094;-69
2022/01/02 04:29:07;;;;;;;40.88;19.52;;;;;;;;;;4997426;28;20066;-69
2022/01/02 04:31:34;;;;;;;43.33;18.95;;;;;;;;;;4980995;28;20343;-69
2022/01/02 04:34:05;;;;;;;47.55;20.25;;;;;;;;;;5038546;28;20433;-68
2022/01/02 04:36:34;;;;;;;56.25;25.45;;;;;;;;;;5038490;28;20052;-68
2022/01/02 04:39:02;;;;;;;64.18;29.55;;;;;;;;;;5038460;28;20018;-69
2022/01/02 04:41:30;;;;;;;64.32;32.85;;;;;;;;;;5038498;28;20022;-69
2022/01/02 04:43:57;;;;;;;66.25;32.35;;;;;;;;;;5038410;28;20053;-68
2022/01/02 04:46:25;;;;;;;77.63;36.60;;;;;;;;;;5038386;28;20100;-69
2022/01/02 04:48:54;;;;;;;83.10;39.65;;;;;;;;;;5037117;28;20087;-69
2022/01/02 04:51:20;;;;;;;85.22;41.38;;;;;;;;;;5035847;28;20028;-69
2022/01/02 04:53:49;;;;;;;79.47;39.40;;;;;;;;;;5038323;28;20033;-69
2022/01/02 04:56:16;;;;;;;76.68;38.58;;;;;;;;;;5038183;28;20026;-69
2022/01/02 04:58:47;;;;;;;84.47;38.95;;;;;;;;;;5038157;28;20080;-70
2022/01/02 05:01:16;;;;;;;77.68;36.70;;;;;;;;;;5038120;28;20017;-70
2022/01/02 05:03:43;;;;;;;76.72;38.88;;;;;;;;;;5038135;28;20318;-69
2022/01/02 05:06:11;;;;;;;75.93;37.45;;;;;;;;;;5038036;28;20026;-70
2022/01/02 05:08:43;;;;;;;74.82;35.95;;;;;;;;;;5036738;28;20052;-70
2022/01/02 05:11:11;;;;;;;78.43;33.53;;;;;;;;;;5037987;28;20014;-70
2022/01/02 05:13:38;;;;;;;63.42;31.33;;;;;;;;;;5037776;28;20132;-69
2022/01/02 05:16:06;;;;;;;61.63;30.13;;;;;;;;;;5037896;28;20318;-70
2022/01/02 05:18:34;;;;;;;59.22;27.83;;;;;;;;;;5037799;28;20405;-69
2022/01/02 05:21:01;;;;;;;50.30;23.40;;;;;;;;;;5037757;28;20477;-69
2022/01/02 05:23:29;;;;;;;37.20;17.77;;;;;;;;;;5036543;28;20029;-69
2022/01/02 05:26:17;;;;;;;39.00;17.20;;;;;;;;;;5036497;28;20083;-70
2022/01/02 05:28:44;;;;;;;30.23;13.18;;;;;;;;;;5037478;28;20091;-69
2022/01/02 05:31:12;;;;;;;28.75;12.75;;;;;;;;;;5037522;28;20021;-69
2022/01/02 05:33:39;;;;;;;34.15;14.95;;;;;;;;;;5037423;28;20053;-70
2022/01/02 05:36:07;;;;;;;34.25;14.15;;;;;;;;;;5036220;28;20028;-69
2022/01/02 05:38:34;;;;;;;34.10;15.05;;;;;;;;;;5037273;28;20434;-69
2022/01/02 05:41:02;;;;;;;31.13;15.02;;;;;;;;;;5036320;28;20403;-70
2022/01/02 05:43:32;;;;;;;31.38;14.07;;;;;;;;;;5037327;28;20346;-69
2022/01/02 05:46:05;;;;;;;32.40;15.70;;;;;;;;;;5037289;28;20056;-70
2022/01/02 05:48:31;;;;;;;39.92;17.08;;;;;;;;;;5036864;28;20022;-69
2022/01/02 05:51:00;;;;;;;39.45;16.20;;;;;;;;;;5037018;28;20036;-69
2022/01/02 05:53:29;;;;;;;32.40;14.75;;;;;;;;;;5036901;28;20029;-69
2022/01/02 05:56:00;;;;;;;34.13;12.60;;;;;;;;;;5036963;28;20100;-69
2022/01/02 05:58:27;;;;;;;26.52;12.07;;;;;;;;;;5036947;28;20088;-69
2022/01/02 06:00:55;;;;;;;26.88;12.55;;;;;;;;;;5036890;28;20124;-69
2022/01/02 06:03:22;;;;;;;27.00;11.73;;;;;;;;;;5036754;28;20033;-69
2022/01/02 06:05:50;;;;;;;24.98;12.50;;;;;;;;;;5036924;28;20021;-70
2022/01/02 06:08:17;;;;;;;27.27;12.07;;;;;;;;;;5036786;28;20441;-70
2022/01/02 06:10:45;;;;;;;36.53;15.75;;;;;;;;;;5036738;28;20040;-69
2022/01/02 06:13:13;;;;;;;35.72;14.93;;;;;;;;;;5035644;28;20426;-70
2022/01/02 06:15:40;;;;;;;38.00;16.00;;;;;;;;;;5035606;28;20029;-70
2022/01/02 06:18:08;;;;;;;32.00;15.75;;;;;;;;;;5036653;28;20095;-70
2022/01/02 06:20:36;;;;;;;35.17;16.48;;;;;;;;;;5036425;28;20087;-70
2022/01/02 06:23:04;;;;;;;35.28;17.10;;;;;;;;;;5036451;28;20033;-69
2022/01/02 06:25:31;;;;;;;38.92;18.00;;;;;;;;;;5035327;28;20033;-69
2022/01/02 06:27:59;;;;;;;36.95;15.55;;;;;;;;;;5035438;28;20041;-69
2022/01/02 06:30:30;;;;;;;36.53;16.33;;;;;;;;;;5036147;28;20029;-69
2022/01/02 06:32:57;;;;;;;40.80;16.60;;;;;;;;;;5035064;28;20022;-70
2022/01/02 06:35:26;;;;;;;34.15;16.42;;;;;;;;;;5036182;28;20027;-69
2022/01/02 06:37:54;;;;;;;47.85;17.30;;;;;;;;;;5036057;28;20033;-69
2022/01/02 06:40:22;;;;;;;36.63;16.52;;;;;;;;;;5036157;28;20422;-69
2022/01/02 06:42:50;;;;;;;34.05;15.77;;;;;;;;;;5036045;28;20027;-69
2022/01/02 06:45:18;;;;;;;43.03;18.50;;;;;;;;;;5036032;28;20319;-69
2022/01/02 06:47:47;;;;;;;43.50;19.13;;;;;;;;;;5035981;28;20026;-69
2022/01/02 06:50:13;;;;;;;46.00;19.90;;;;;;;;;;5035879;28;20466;-70
2022/01/02 06:52:40;;;;;;;46.88;18.98;;;;;;;;;;5034883;28;20090;-69
2022/01/02 06:55:08;;;;;;;41.78;17.20;;;;;;;;;;5036376;28;20030;-69
2022/01/02 06:57:36;;;;;;;29.27;13.45;;;;;;;;;;5034959;28;20030;-70
2022/01/02 07:00:04;;;;;;;37.25;15.50;;;;;;;;;;5034826;28;20373;-69
2022/01/02 07:02:33;;;;;;;34.80;14.32;;;;;;;;;;5034870;28;20053;-70
2022/01/02 07:05:00;;;;;;;41.60;14.52;;;;;;;;;;5035892;28;20021;-69
2022/01/02 07:07:28;;;;;;;33.63;12.95;;;;;;;;;;5035856;28;20100;-70
2022/01/02 07:09:56;;;;;;;34.95;13.45;;;;;;;;;;5034747;28;20026;-68
2022/01/02 07:12:23;;;;;;;31.52;13.18;;;;;;;;;;5035827;28;20057;-69
2022/01/02 07:14:54;;;;;;;29.30;12.68;;;;;;;;;;5037690;28;20492;-69
2022/01/02 07:17:21;;;;;;;31.83;12.38;;;;;;;;;;5039953;28;20026;-70
2022/01/02 07:19:49;;;;;;;23.63;11.48;;;;;;;;;;5038805;28;20319;-70
2022/01/02 07:22:17;;;;;;;32.38;13.15;;;;;;;;;;5039773;28;20022;-70
2022/01/02 07:24:50;;;;;;;32.40;14.10;;;;;;;;;;5038748;28;20029;-70
2022/01/02 07:27:18;;;;;;;33.17;14.13;;;;;;;;;;5039708;28;20101;-69
2022/01/02 07:29:46;;;;;;;35.35;15.93;;;;;;;;;;5039733;28;20026;-69
2022/01/02 07:32:14;;;;;;;42.05;16.48;;;;;;;;;;5039601;28;20029;-69
2022/01/02 07:34:42;;;;;;;39.38;15.02;;;;;;;;;;5039666;28;20296;-68
2022/01/02 07:37:10;;;;;;;35.67;15.52;;;;;;;;;;5038476;28;20021;-69
2022/01/02 07:39:37;;;;;;;34.22;13.82;;;;;;;;;;5039536;28;20025;-69
2022/01/02 07:42:05;;;;;;;40.65;14.98;;;;;;;;;;5038434;28;20052;-70
2022/01/02 07:44:33;;;;;;;34.60;15.32;;;;;;;;;;5039540;28;20028;-69
2022/01/02 07:47:00;;;;;;;33.75;15.35;;;;;;;;;;5039541;28;20022;-69
2022/01/02 07:49:26;;;;;;;35.78;16.23;;;;;;;;;;5039308;28;20124;-69
2022/01/02 07:51:53;;;;;;;42.00;17.88;;;;;;;;;;5038323;28;20044;-69
2022/01/02 07:54:20;;;;;;;35.80;16.80;;;;;;;;;;5039607;28;20041;-69
2022/01/02 07:56:48;;;;;;;41.15;17.77;;;;;;;;;;5039312;28;20296;-69
2022/01/02 07:59:15;;;;;;;40.70;18.38;;;;;;;;;;5038167;28;20104;-69
2022/01/02 08:01:43;;;;;;;38.95;18.67;;;;;;;;;;5039290;28;20029;-69
2022/01/02 08:04:11;;;;;;;41.97;19.45;;;;;;;;;;5039193;28;20021;-70
2022/01/02 08:06:39;;;;;;;46.90;20.40;;;;;;;;;;5038051;28;20049;-69
2022/01/02 08:09:06;;;;;;;44.33;18.95;;;;;;;;;;5038006;28;20029;-69
2022/01/02 08:11:34;;;;;;;44.10;19.35;;;;;;;;;;5004694;28;20120;-69
2022/01/02 08:14:02;;;;;;;42.83;18.73;;;;;;;;;;5039043;28;20022;-69
2022/01/02 08:16:30;;;;;;;39.55;17.05;;;;;;;;;;5039082;28;20356;-70
2022/01/02 08:18:57;;;;;;;31.73;13.30;;;;;;;;;;5037838;28;20088;-69
2022/01/02 08:21:24;;;;;;;41.97;14.77;;;;;;;;;;5037757;28;20025;-70
2022/01/02 08:23:52;;;;;;;32.65;14.55;;;;;;;;;;5037764;28;20022;-70
2022/01/02 08:26:20;;;;;;;41.00;16.10;;;;;;;;;;5037472;28;20033;-70
2022/01/02 08:28:47;;;;;;;37.90;17.08;;;;;;;;;;5038686;28;20013;-70
2022/01/02 08:31:15;;;;;;;36.40;14.57;;;;;;;;;;5037577;28;20112;-70
2022/01/02 08:33:43;;;;;;;35.33;12.48;;;;;;;;;;5037575;28;20072;-70
2022/01/02 08:36:10;;;;;;;31.58;11.90;;;;;;;;;;5037561;28;20025;-70
2022/01/02 08:38:38;;;;;;;36.20;10.32;;;;;;;;;;5037486;28;20032;-70
2022/01/02 08:41:06;;;;;;;24.48;9.48;;;;;;;;;;5038453;28;20035;-70
2022/01/02 08:43:34;;;;;;;18.58;8.50;;;;;;;;;;5038533;28;20032;-70
2022/01/02 08:46:05;;;;;;;36.92;11.40;;;;;;;;;;5037395;28;20035;-70
2022/01/02 08:48:31;;;;;;;35.30;13.02;;;;;;;;;;5036995;28;20477;-70
2022/01/02 08:50:59;;;;;;;28.77;11.68;;;;;;;;;;5037166;28;20044;-69
2022/01/02 08:53:27;;;;;;;30.45;10.57;;;;;;;;;;5037020;28;20482;-69
2022/01/02 08:55:55;;;;;;;29.85;11.52;;;;;;;;;;5038236;28;20057;-69
2022/01/02 08:58:22;;;;;;;30.83;12.68;;;;;;;;;;5037115;28;20025;-69
2022/01/02 09:00:51;;;;;;;30.83;13.50;;;;;;;;;;5038171;28;20029;-70
2022/01/02 09:03:18;;;;;;;37.83;14.90;;;;;;;;;;5037840;28;20025;-69
2022/01/02 09:05:46;;;;;;;35.72;14.30;;;;;;;;;;5036881;28;20441;-68
2022/01/02 09:08:13;;;;;;;29.77;14.60;;;;;;;;;;5037957;28;20427;-69
2022/01/02 09:10:41;;;;;;;38.33;15.70;;;;;;;;;;5036777;28;20426;-70
2022/01/02 09:13:08;;;;;;;36.38;14.30;;;;;;;;;;5036614;28;20029;-70
2022/01/02 09:15:36;;;;;;;32.75;14.38;;;;;;;;;;5036604;28;20025;-69
2022/01/02 09:18:05;;;;;;;30.80;15.32;;;;;;;;;;5037802;28;20053;-70
2022/01/02 09:20:33;;;;;;;37.10;15.30;;;;;;;;;;5037695;28;20083;-70
2022/01/02 09:23:00;;;;;;;36.17;12.80;;;;;;;;;;5037702;28;20041;-71
2022/01/02 09:25:28;;;;;;;34.53;13.90;;;;;;;;;;5037622;28;20043;-70
2022/01/02 09:27:58;;;;;;;35.95;15.50;;;;;;;;;;5036485;28;20064;-70
2022/01/02 09:30:25;;;;;;;38.83;16.70;;;;;;;;;;5036423;28;20025;-70
2022/01/02 09:32:55;;;;;;;46.60;19.33;;;;;;;;;;5037370;28;20105;-70
2022/01/02 09:35:22;;;;;;;51.40;22.77;;;;;;;;;;5037487;28;20068;-70
2022/01/02 09:37:50;;;;;;;60.42;27.58;;;;;;;;;;5036811;28;20044;-70
2022/01/02 09:40:17;;;;;;;56.25;30.02;;;;;;;;;;5036318;28;20415;-69
2022/01/02 09:42:45;;;;;;;48.55;24.73;;;;;;;;;;5037444;28;20037;-70
2022/01/02 09:45:13;;;;;;;44.60;22.90;;;;;;;;;;5036273;28;20052;-69
2022/01/02 09:47:41;;;;;;;50.50;23.48;;;;;;;;;;5036310;28;20465;-69
2022/01/02 09:50:08;;;;;;;48.60;22.95;;;;;;;;;;5037067;28;20056;-70
2022/01/02 09:52:36;;;;;;;56.42;27.75;;;;;;;;;;5035993;28;20029;-70
2022/01/02 09:55:04;;;;;;;45.83;24.70;;;;;;;;;;5036206;28;20038;-70
2022/01/02 09:57:31;;;;;;;49.35;22.90;;;;;;;;;;5035864;28;20064;-69
2022/01/02 09:59:59;;;;;;;46.80;23.05;;;;;;;;;;5035877;28;20017;-70
2022/01/02 10:02:28;;;;;;;45.45;22.05;;;;;;;;;;5035632;28;20052;-70
2022/01/02 10:05:02;;;;;;;48.10;21.58;;;;;;;;;;5036757;28;20032;-70
2022/01/02 10:07:33;;;;;;;47.13;22.55;;;;;;;;;;5035771;28;20032;-69
2022/01/02 10:10:11;;;;;;;48.45;22.85;;;;;;;;;;5036821;28;20051;-69
2022/01/02 10:12:39;;;;;;;49.90;22.27;;;;;;;;;;5035426;28;20117;-70
2022/01/02 10:15:20;;;;;;;105.20;48.55;;;;;;;;;;5035444;28;20017;-70
2022/01/02 10:18:04;;;;;;;176.45;79.32;;;;;;;;;;5036447;28;20163;-70
2022/01/02 10:20:47;;;;;;;129.98;55.28;;;;;;;;;;5036669;28;20079;-70
2022/01/02 10:23:19;;;;;;;112.40;52.65;;;;;;;;;;5035466;28;20042;-70
2022/01/02 10:25:51;;;;;;;128.75;61.05;;;;;;;;;;5036110;28;20052;-70
2022/01/02 10:28:37;;;;;;;279.90;112.63;;;;;;;;;;5036341;28;20053;-70
2022/01/02 10:31:15;;;;;;;154.23;69.28;;;;;;;;;;5035233;28;20029;-69
2022/01/02 10:33:58;;;;;;;248.05;96.97;;;;;;;;;;5034969;28;20030;-69
2022/01/02 10:36:32;;;;;;;113.65;55.05;;;;;;;;;;5036207;28;20021;-69
2022/01/02 10:39:20;;;;;;;83.50;39.30;;;;;;;;;;5036238;28;20022;-69
2022/01/02 10:41:50;;;;;;;83.65;40.13;;;;;;;;;;5034970;28;20323;-70
2022/01/02 10:44:18;;;;;;;94.78;46.65;;;;;;;;;;4994645;28;20120;-69
2022/01/02 10:47:04;;;;;;;91.03;45.67;;;;;;;;;;4994879;28;20407;-70
2022/01/02 10:49:49;;;;;;;81.65;42.80;;;;;;;;;;4994777;28;20046;-71
2022/01/02 10:52:19;;;;;;;95.20;44.70;;;;;;;;;;4994476;28;20440;-70
2022/01/02 10:54:47;;;;;;;103.75;52.65;;;;;;;;;;4994368;28;20049;-69
2022/01/02 10:57:15;;;;;;;120.70;58.97;;;;;;;;;;4978510;28;20022;-69
2022/01/02 10:59:43;;;;;;;124.45;59.75;;;;;;;;;;4994859;28;20031;-69
2022/01/02 11:02:12;;;;;;;95.90;48.53;;;;;;;;;;4978345;28;20100;-69
2022/01/02 11:04:46;;;;;;;94.38;48.20;;;;;;;;;;4978483;28;20038;-69
2022/01/02 11:07:20;;;;;;;112.13;56.90;;;;;;;;;;4978430;28;20104;-70
2022/01/02 11:09:49;;;;;;;257.67;122.18;;;;;;;;;;4978347;28;20058;-70
2022/01/02 11:12:18;;;;;;;417.92;211.05;;;;;;;;;;4994605;28;20450;-70
2022/01/02 11:14:49;;;;;;;389.17;196.55;;;;;;;;;;4993007;28;20041;-70
2022/01/02 11:17:17;;;;;;;204.05;96.60;;;;;;;;;;5034760;28;20071;-70
2022/01/02 11:19:44;;;;;;;187.15;86.50;;;;;;;;;;5034786;28;20029;-70
2022/01/02 11:22:21;;;;;;;187.50;86.32;;;;;;;;;;5034990;28;20438;-70
2022/01/02 11:25:14;;;;;;;209.43;94.18;;;;;;;;;;5035762;28;20064;-70
2022/01/02 11:27:50;;;;;;;199.40;92.68;;;;;;;;;;5032485;28;20391;-70
2022/01/02 11:30:35;;;;;;;212.32;93.70;;;;;;;;;;5035632;28;20048;-70
2022/01/02 11:33:09;;;;;;;195.88;94.18;;;;;;;;;;5035595;28;20026;-70
2022/01/02 11:35:38;;;;;;;208.32;98.40;;;;;;;;;;5035671;28;20022;-71
2022/01/02 11:38:07;;;;;;;194.30;91.05;;;;;;;;;;5034600;28;20036;-70
2022/01/02 11:40:48;;;;;;;189.65;90.55;;;;;;;;;;5034653;28;20030;-70
2022/01/02 11:43:34;;;;;;;198.52;91.35;;;;;;;;;;5035628;28;20026;-69
2022/01/02 11:46:20;;;;;;;184.82;91.72;;;;;;;;;;5034433;28;20030;-70
2022/01/02 11:49:13;;;;;;;185.68;87.85;;;;;;;;;;5035095;28;20057;-69
2022/01/02 11:51:57;;;;;;;161.23;80.90;;;;;;;;;;5035384;28;20075;-69
2022/01/02 11:54:40;;;;;;;165.85;81.43;;;;;;;;;;5035648;28;20040;-70
2022/01/02 11:57:15;;;;;;;159.63;80.93;;;;;;;;;;5035472;28;20363;-70
2022/01/02 11:59:45;;;;;;;176.57;86.07;;;;;;;;;;5036369;28;20104;-70
2022/01/02 12:02:27;;;;;;;170.02;82.90;;;;;;;;;;5039092;28;20029;-70
2022/01/02 12:05:11;;;;;;;158.88;77.28;;;;;;;;;;5038052;28;20033;-70
2022/01/02 12:07:45;;;;;;;180.60;84.70;;;;;;;;;;5037984;28;20430;-70
2022/01/02 12:10:17;;;;;;;173.18;84.88;;;;;;;;;;5039023;28;20104;-70
2022/01/02 12:13:10;;;;;;;194.73;101.07;;;;;;;;;;5038888;28;20393;-70
2022/01/02 12:15:43;;;;;;;210.63;107.25;;;;;;;;;;5037839;28;20036;-69
2022/01/02 12:18:31;;;;;;;215.45;108.88;;;;;;;;;;5038984;28;20028;-69
2022/01/02 12:21:01;;;;;;;204.68;106.32;;;;;;;;;;5037651;28;20025;-70
2022/01/02 12:23:59;;;;;;;220.25;113.25;;;;;;;;;;5038606;28;20029;-70
2022/01/02 12:26:30;;;;;;;248.18;124.70;;;;;;;;;;4942471;29;20035;-70
2022/01/02 12:29:07;;;;;;;223.38;117.18;;;;;;;;;;4942585;29;20063;-70
2022/01/02 12:31:40;;;;;;;272.80;139.80;;;;;;;;;;4958575;29;20336;-70
2022/01/02 12:34:19;;;;;;;309.05;156.30;;;;;;;;;;4942357;29;20456;-70
2022/01/02 12:36:48;;;;;;;215.82;113.07;;;;;;;;;;4958372;29;20040;-69
2022/01/02 12:39:28;;;;;;;196.32;98.43;;;;;;;;;;4958734;29;20322;-70
2022/01/02 12:42:00;;;;;;;225.55;111.82;;;;;;;;;;4942426;29;20063;-68
2022/01/02 12:44:29;;;;;;;238.80;118.55;;;;;;;;;;4942458;29;20079;-69
2022/01/02 12:46:58;;;;;;;241.55;121.30;;;;;;;;;;4958488;29;20047;-69
2022/01/02 12:49:31;;;;;;;246.52;121.40;;;;;;;;;;4958224;29;20047;-69
2022/01/02 12:52:04;;;;;;;240.02;111.75;;;;;;;;;;4942165;29;20031;-69
2022/01/02 12:54:33;;;;;;;245.23;111.65;;;;;;;;;;4942075;29;20421;-69
2022/01/02 12:57:08;;;;;;;238.15;109.55;;;;;;;;;;4958282;29;20027;-70
2022/01/02 12:59:51;;;;;;;238.73;109.32;;;;;;;;;;4942009;29;20468;-69
2022/01/02 13:02:24;;;;;;;210.77;94.72;;;;;;;;;;5008061;28;20042;-69
2022/01/02 13:05:02;;;;;;;200.40;86.93;;;;;;;;;;5038066;28;20022;-69
2022/01/02 13:07:40;;;;;;;187.07;85.47;;;;;;;;;;5037984;28;20025;-70
2022/01/02 13:10:15;;;;;;;209.57;95.95;;;;;;;;;;5036865;28;20036;-69
2022/01/02 13:12:46;;;;;;;224.13;99.43;;;;;;;;;;5036761;28;20112;-69
2022/01/02 13:15:14;;;;;;;198.45;88.00;;;;;;;;;;5036748;28;20104;-69
2022/01/02 13:18:04;;;;;;;222.18;96.40;;;;;;;;;;5036742;28;20108;-69
2022/01/02 13:20:43;;;;;;;253.75;112.68;;;;;;;;;;5037950;28;20124;-69
2022/01/02 13:23:10;;;;;;;238.35;109.40;;;;;;;;;;5037786;28;20035;-68
2022/01/02 13:25:45;;;;;;;230.15;107.60;;;;;;;;;;5037658;28;20029;-69
2022/01/02 13:28:17;;;;;;;200.35;98.00;;;;;;;;;;5036632;28;20041;-69
2022/01/02 13:30:58;;;;;;;191.02;90.95;;;;;;;;;;5037565;28;20037;-69
2022/01/02 13:33:31;;;;;;;191.93;90.28;;;;;;;;;;5036344;28;20033;-70
2022/01/02 13:36:11;;;;;;;189.20;91.10;;;;;;;;;;5020321;28;20349;-70
2022/01/02 13:38:56;;;;;;;182.73;84.43;;;;;;;;;;5036248;28;20026;-70
2022/01/02 13:41:24;;;;;;;152.48;78.68;;;;;;;;;;5037527;28;20022;-70
2022/01/02 13:43:54;;;;;;;145.27;74.05;;;;;;;;;;5037398;28;20105;-70
2022/01/02 13:46:23;;;;;;;140.90;70.55;;;;;;;;;;5036109;28;20437;-70
2022/01/02 13:48:49;;;;;;;141.00;70.25;;;;;;;;;;5036876;28;20426;-70
2022/01/02 13:51:20;;;;;;;145.68;70.65;;;;;;;;;;5036004;28;20099;-70
2022/01/02 13:53:50;;;;;;;143.55;72.32;;;;;;;;;;5036931;28;20399;-69
2022/01/02 13:56:20;;;;;;;196.73;92.70;;;;;;;;;;5036022;28;20057;-69
2022/01/02 13:58:49;;;;;;;185.85;89.28;;;;;;;;;;5036792;28;20026;-69
2022/01/02 14:01:20;;;;;;;151.27;73.30;;;;;;;;;;5035828;28;20025;-70
2022/01/02 14:03:57;;;;;;;147.57;73.32;;;;;;;;;;5036912;28;20025;-70
2022/01/02 14:06:39;;;;;;;156.45;73.40;;;;;;;;;;5035745;28;20037;-69
2022/01/02 14:09:07;;;;;;;156.68;74.80;;;;;;;;;;5036892;28;20029;-69
2022/01/02 14:11:37;;;;;;;149.55;72.10;;;;;;;;;;5035702;28;20430;-69
2022/01/02 14:14:09;;;;;;;134.70;59.00;;;;;;;;;;5036731;28;20091;-69
2022/01/02 14:19:48;;;;;;;135.15;62.83;;;;;;;;;;5036679;28;20025;-69
2022/01/02 14:22:17;;;;;;;124.63;55.50;;;;;;;;;;5035205;28;20056;-70
2022/01/02 14:24:45;;;;;;;125.32;56.10;;;;;;;;;;5036609;28;20029;-69
2022/01/02 14:27:17;;;;;;;115.43;56.00;;;;;;;;;;5035568;28;20021;-69
2022/01/02 14:29:45;;;;;;;107.22;54.08;;;;;;;;;;5035299;28;20037;-70
2022/01/02 14:32:14;;;;;;;107.70;52.00;;;;;;;;;;5035370;28;20087;-70
2022/01/02 14:34:44;;;;;;;97.13;46.65;;;;;;;;;;5036503;28;20018;-69
2022/01/02 14:37:13;;;;;;;95.47;43.75;;;;;;;;;;5035336;28;20025;-69
2022/01/02 14:39:41;;;;;;;95.60;41.97;;;;;;;;;;5036440;28;20049;-69
2022/01/02 14:42:09;;;;;;;96.72;42.72;;;;;;;;;;5036290;28;20068;-69